createdAt,value
2023-02-28T00:02:01.560Z,33.27
2023-02-28T00:04:54.459Z,28.90
2023-02-28T00:07:45.296Z,29.50
2023-02-28T00:10:35.211Z,39.63
2023-02-28T00:13:24.692Z,37.80
2023-02-28T00:16:16.654Z,37.53
2023-02-28T00:19:06.154Z,31.93
2023-02-28T00:21:56.015Z,35.00
2023-02-28T00:24:47.354Z,42.43
2023-02-28T00:27:37.229Z,37.20
2023-02-28T00:30:27.186Z,33.57
2023-02-28T00:33:16.816Z,35.40
2023-02-28T00:36:09.116Z,35.87
2023-02-28T00:39:02.179Z,32.37
2023-02-28T00:41:53.450Z,34.53
2023-02-28T00:44:43.210Z,33.87
2023-02-28T00:47:32.795Z,30.63
2023-02-28T00:50:23.464Z,32.57
2023-02-28T00:53:12.971Z,31.70
2023-02-28T00:56:02.867Z,33.20
2023-02-28T00:58:54.110Z,31.90
2023-02-28T01:01:45.973Z,28.40
2023-02-28T01:04:35.720Z,29.60
2023-02-28T01:07:25.653Z,30.47
2023-02-28T01:10:15.180Z,27.43
2023-02-28T01:13:05.335Z,22.43
2023-02-28T01:15:58.674Z,23.33
2023-02-28T01:18:48.435Z,23.73
2023-02-28T01:21:38.032Z,26.07
2023-02-28T01:24:27.881Z,28.13
2023-02-28T01:27:17.526Z,26.40
2023-02-28T01:30:07.976Z,25.20
2023-02-28T01:32:59.400Z,23.67
2023-02-28T01:35:49.089Z,26.63
2023-02-28T01:38:38.870Z,26.00
2023-02-28T01:41:30.685Z,25.20
2023-02-28T01:44:57.875Z,22.13
2023-02-28T01:47:49.855Z,24.03
2023-02-28T01:50:45.330Z,27.03
2023-02-28T01:53:39.046Z,22.63
2023-02-28T01:56:32.467Z,26.50
2023-02-28T01:59:27.036Z,21.07
2023-02-28T02:02:17.153Z,25.17
2023-02-28T02:05:09.455Z,26.83
2023-02-28T02:08:05.167Z,22.40
2023-02-28T02:13:58.162Z,23.10
2023-02-28T02:17:02.922Z,21.53
2023-02-28T02:20:33.439Z,22.40
2023-02-28T02:24:11.887Z,21.60
2023-02-28T02:27:14.098Z,24.83
2023-02-28T02:30:47.043Z,22.70
2023-02-28T02:34:16.724Z,21.80
2023-02-28T02:37:16.932Z,25.60
2023-02-28T02:40:14.068Z,28.00
2023-02-28T02:43:07.947Z,20.93
2023-02-28T02:46:00.674Z,23.47
2023-02-28T02:48:51.347Z,21.33
2023-02-28T02:51:43.596Z,20.63
2023-02-28T02:54:40.868Z,21.57
2023-02-28T02:57:37.121Z,24.70
2023-02-28T03:00:31.306Z,22.43
2023-02-28T03:03:30.236Z,19.17
2023-02-28T03:06:19.794Z,22.50
2023-02-28T03:09:10.875Z,17.53
2023-02-28T03:12:03.293Z,22.67
2023-02-28T03:15:07.978Z,15.47
2023-02-28T03:18:08.185Z,22.60
2023-02-28T03:21:09.686Z,26.33
2023-02-28T03:24:07.107Z,24.40
2023-02-28T03:27:02.010Z,22.77
2023-02-28T03:30:01.710Z,22.17
2023-02-28T03:32:58.109Z,20.40
2023-02-28T03:35:55.127Z,22.37
2023-02-28T03:38:49.099Z,24.20
2023-02-28T03:41:46.072Z,25.27
2023-02-28T03:44:39.551Z,25.17
2023-02-28T03:47:36.885Z,18.93
2023-02-28T03:50:30.950Z,18.33
2023-02-28T03:53:26.934Z,22.33
2023-02-28T03:56:21.061Z,20.70
2023-02-28T03:59:18.318Z,23.00
2023-02-28T04:02:08.807Z,18.80
2023-02-28T04:05:01.193Z,20.80
2023-02-28T04:07:51.950Z,21.37
2023-02-28T04:10:44.998Z,19.00
2023-02-28T04:13:37.290Z,18.23
2023-02-28T04:16:35.019Z,20.83
2023-02-28T04:19:25.620Z,20.53
2023-02-28T04:22:19.012Z,22.80
2023-02-28T04:25:10.973Z,19.90
2023-02-28T04:28:01.011Z,18.93
2023-02-28T04:30:53.010Z,20.17
2023-02-28T04:33:45.270Z,19.73
2023-02-28T04:36:35.721Z,23.23
2023-02-28T04:39:28.155Z,17.80
2023-02-28T04:42:18.771Z,20.87
2023-02-28T04:45:11.611Z,18.00
2023-02-28T04:48:01.269Z,19.97
2023-02-28T04:50:52.091Z,21.70
2023-02-28T04:53:43.871Z,22.07
2023-02-28T04:56:35.144Z,15.87
2023-02-28T04:59:24.658Z,25.60
2023-02-28T05:02:14.131Z,24.30
2023-02-28T05:05:03.673Z,21.40
2023-02-28T05:07:55.066Z,14.33
2023-02-28T05:10:46.523Z,20.90
2023-02-28T05:13:37.882Z,15.70
2023-02-28T05:16:31.371Z,20.20
2023-02-28T05:19:22.520Z,18.73
2023-02-28T05:22:18.476Z,21.83
2023-02-28T05:25:08.909Z,19.17
2023-02-28T05:27:59.223Z,20.43
2023-02-28T05:30:51.468Z,15.57
2023-02-28T05:33:42.708Z,20.97
2023-02-28T05:36:32.447Z,17.73
2023-02-28T05:39:21.967Z,19.83
2023-02-28T05:42:12.172Z,20.83
2023-02-28T05:45:03.893Z,16.97
2023-02-28T05:47:59.258Z,22.00
2023-02-28T05:50:49.106Z,18.70
2023-02-28T05:53:39.448Z,20.13
2023-02-28T05:56:29.370Z,23.10
2023-02-28T05:59:19.089Z,22.60
2023-02-28T06:02:09.065Z,22.40
2023-02-28T06:05:00.745Z,20.10
2023-02-28T06:07:51.189Z,19.40
2023-02-28T06:10:41.185Z,18.37
2023-02-28T06:13:31.088Z,22.27
2023-02-28T06:16:24.191Z,22.03
2023-02-28T06:19:15.117Z,16.33
2023-02-28T06:22:06.385Z,23.53
2023-02-28T06:24:56.421Z,21.63
2023-02-28T06:27:46.078Z,18.37
2023-02-28T06:30:36.271Z,23.47
2023-02-28T06:33:27.273Z,17.60
2023-02-28T06:36:18.683Z,24.27
2023-02-28T06:39:11.265Z,24.63
2023-02-28T06:42:01.075Z,17.67
2023-02-28T06:44:51.154Z,20.90
2023-02-28T06:47:42.137Z,19.90
2023-02-28T06:50:34.021Z,18.60
2023-02-28T06:53:23.486Z,19.93
2023-02-28T06:56:16.803Z,19.57
2023-02-28T06:59:07.668Z,17.87
2023-02-28T07:01:58.485Z,19.87
2023-02-28T07:04:49.062Z,18.80
2023-02-28T07:07:42.269Z,19.57
2023-02-28T07:10:32.684Z,19.37
2023-02-28T07:13:28.418Z,18.67
2023-02-28T07:16:20.998Z,21.73
2023-02-28T07:19:12.237Z,17.40
2023-02-28T07:22:04.034Z,17.37
2023-02-28T07:24:54.044Z,16.87
2023-02-28T07:27:44.374Z,16.87
2023-02-28T07:30:36.129Z,15.47
2023-02-28T07:33:26.685Z,15.80
2023-02-28T07:36:20.253Z,16.00
2023-02-28T07:39:10.856Z,17.07
2023-02-28T07:42:01.652Z,16.37
2023-02-28T07:44:53.080Z,16.90
2023-02-28T07:47:46.556Z,17.10
2023-02-28T07:50:37.492Z,12.07
2023-02-28T07:53:28.653Z,13.17
2023-02-28T07:56:18.438Z,11.83
2023-02-28T07:59:08.618Z,14.07
2023-02-28T08:02:04.296Z,13.27
2023-02-28T08:04:57.287Z,12.77
2023-02-28T08:07:50.076Z,8.10
2023-02-28T08:10:40.459Z,10.73
2023-02-28T08:13:31.617Z,9.90
2023-02-28T08:16:56.802Z,8.90
2023-02-28T08:19:49.254Z,9.50
2023-02-28T08:22:45.859Z,9.27
2023-02-28T08:25:36.527Z,9.97
2023-02-28T08:28:27.633Z,12.33
2023-02-28T08:31:20.189Z,13.23
2023-02-28T08:34:12.400Z,13.23
2023-02-28T08:37:02.293Z,10.50
2023-02-28T08:39:56.217Z,12.30
2023-02-28T08:42:47.233Z,16.90
2023-02-28T08:45:36.842Z,13.30
2023-02-28T08:48:26.397Z,15.40
2023-02-28T08:51:20.130Z,16.97
2023-02-28T08:54:13.793Z,14.80
2023-02-28T08:57:06.248Z,14.07
2023-02-28T08:59:56.153Z,13.17
2023-02-28T09:02:46.100Z,14.10
2023-02-28T09:05:36.079Z,16.00
2023-02-28T09:08:26.347Z,13.50
2023-02-28T09:11:20.393Z,13.80
2023-02-28T09:14:12.274Z,15.77
2023-02-28T09:17:01.685Z,18.13
2023-02-28T09:19:52.397Z,13.37
2023-02-28T09:22:42.314Z,14.93
2023-02-28T09:25:32.176Z,12.30
2023-02-28T09:28:23.167Z,14.97
2023-02-28T09:31:18.589Z,15.10
2023-02-28T09:34:09.182Z,12.10
2023-02-28T09:36:59.081Z,14.80
2023-02-28T09:39:48.976Z,14.90
2023-02-28T09:42:44.957Z,13.87
2023-02-28T09:45:39.446Z,14.07
2023-02-28T09:48:36.255Z,12.03
2023-02-28T09:51:40.272Z,12.43
2023-02-28T09:54:35.688Z,11.60
2023-02-28T09:57:34.990Z,12.30
2023-02-28T10:00:30.620Z,11.17
2023-02-28T10:03:33.662Z,7.40
2023-02-28T10:06:26.390Z,7.47
2023-02-28T10:09:23.935Z,9.53
2023-02-28T10:12:15.700Z,11.00
2023-02-28T10:15:08.417Z,7.63
2023-02-28T10:18:10.222Z,6.87
2023-02-28T10:21:03.353Z,10.50
2023-02-28T10:23:56.229Z,6.33
2023-02-28T10:26:47.917Z,8.43
2023-02-28T10:29:37.673Z,9.50
2023-02-28T10:32:31.456Z,8.40
2023-02-28T10:35:25.442Z,6.83
2023-02-28T10:38:20.460Z,8.93
2023-02-28T10:41:12.030Z,6.47
2023-02-28T10:44:19.724Z,7.13
2023-02-28T10:47:16.248Z,6.83
2023-02-28T10:50:07.165Z,7.87
2023-02-28T10:52:57.331Z,4.87
2023-02-28T10:56:01.403Z,6.83
2023-02-28T10:59:00.812Z,5.50
2023-02-28T11:01:55.111Z,4.90
2023-02-28T11:04:45.441Z,5.30
2023-02-28T11:07:50.486Z,6.43
2023-02-28T11:10:42.986Z,6.00
2023-02-28T11:13:36.695Z,5.07
2023-02-28T11:16:37.306Z,5.23
2023-02-28T11:19:31.087Z,4.47
2023-02-28T11:22:23.365Z,4.90
2023-02-28T11:25:22.671Z,6.67
2023-02-28T11:28:29.335Z,4.77
2023-02-28T11:31:23.769Z,5.87
2023-02-28T11:34:31.241Z,4.63
2023-02-28T11:37:22.272Z,7.73
2023-02-28T11:40:17.803Z,6.27
2023-02-28T11:43:31.846Z,6.60
2023-02-28T11:46:34.722Z,7.63
2023-02-28T11:49:42.021Z,7.43
2023-02-28T11:52:44.309Z,6.10
2023-02-28T11:55:39.062Z,7.50
2023-02-28T11:58:44.119Z,7.80
2023-02-28T12:01:51.080Z,9.63
2023-02-28T12:04:51.576Z,8.53
2023-02-28T12:07:50.877Z,8.43
2023-02-28T12:10:51.556Z,7.13
2023-02-28T12:13:53.270Z,7.93
2023-02-28T12:16:59.244Z,5.40
2023-02-28T12:20:00.070Z,7.13
2023-02-28T12:23:00.915Z,5.97
2023-02-28T12:26:07.973Z,5.47
2023-02-28T12:29:02.466Z,5.13
2023-02-28T12:31:59.117Z,4.43
2023-02-28T12:34:52.633Z,4.17
2023-02-28T12:37:47.288Z,3.80
2023-02-28T12:40:48.033Z,5.90
2023-02-28T12:43:50.857Z,5.20
2023-02-28T12:46:44.772Z,4.40
2023-02-28T12:49:41.412Z,4.07
2023-02-28T12:52:43.094Z,4.27
2023-02-28T12:55:43.690Z,5.53
2023-02-28T12:58:38.312Z,4.43
2023-02-28T13:02:04.936Z,5.13
2023-02-28T13:05:23.367Z,3.57
2023-02-28T13:08:38.376Z,5.30
2023-02-28T13:11:32.311Z,3.60
2023-02-28T13:14:28.858Z,4.83
2023-02-28T13:17:23.218Z,5.57
2023-02-28T13:20:21.419Z,4.37
2023-02-28T13:23:55.755Z,3.97
2023-02-28T13:27:35.210Z,5.60
2023-02-28T13:31:02.166Z,4.33
2023-02-28T13:34:17.505Z,4.10
2023-02-28T13:37:38.806Z,4.53
2023-02-28T13:40:38.430Z,5.77
2023-02-28T13:44:10.612Z,3.93
2023-02-28T13:47:36.238Z,3.53
2023-02-28T13:50:31.607Z,3.83
2023-02-28T13:53:47.799Z,5.53
2023-02-28T13:56:48.054Z,3.77
2023-02-28T13:59:46.188Z,4.03
2023-02-28T14:02:59.081Z,4.17
2023-02-28T14:05:49.068Z,3.63
2023-02-28T14:08:40.686Z,3.67
2023-02-28T14:11:36.254Z,3.83
2023-02-28T14:14:58.641Z,3.17
2023-02-28T14:17:49.182Z,3.80
2023-02-28T14:20:41.857Z,3.60
2023-02-28T14:23:57.246Z,3.30
2023-02-28T14:27:20.052Z,4.30
2023-02-28T14:30:44.193Z,3.87
2023-02-28T14:34:13.529Z,4.00
2023-02-28T14:37:06.336Z,5.27
2023-02-28T14:39:59.534Z,5.23
2023-02-28T14:42:59.226Z,5.80
2023-02-28T14:45:54.139Z,5.73
2023-02-28T14:48:44.001Z,5.30
2023-02-28T14:51:34.329Z,7.33
2023-02-28T14:54:26.735Z,11.23
2023-02-28T14:57:25.888Z,6.53
2023-02-28T15:00:23.467Z,6.40
2023-02-28T15:03:23.480Z,6.37
2023-02-28T15:06:18.777Z,5.10
2023-02-28T15:09:20.243Z,7.07
2023-02-28T15:12:10.786Z,6.77
2023-02-28T15:15:01.131Z,6.23
2023-02-28T15:17:56.564Z,7.27
2023-02-28T15:20:48.093Z,7.93
2023-02-28T15:23:40.260Z,8.23
2023-02-28T15:26:34.218Z,6.87
2023-02-28T15:29:26.230Z,7.03
2023-02-28T15:32:31.595Z,7.40
2023-02-28T15:35:30.409Z,9.23
2023-02-28T15:38:25.224Z,8.17
2023-02-28T15:41:28.415Z,7.43
2023-02-28T15:44:20.652Z,8.03
2023-02-28T15:47:19.646Z,9.30
2023-02-28T15:50:16.753Z,8.63
2023-02-28T15:53:19.922Z,10.10
2023-02-28T15:56:28.330Z,8.10
2023-02-28T15:59:21.499Z,8.10
2023-02-28T16:02:22.103Z,8.80
2023-02-28T16:05:37.169Z,6.53
2023-02-28T16:08:31.057Z,8.57
2023-02-28T16:11:21.769Z,9.87
2023-02-28T16:14:19.298Z,7.80
2023-02-28T16:17:11.563Z,6.20
2023-02-28T16:20:02.679Z,7.43
2023-02-28T16:22:53.334Z,8.77
2023-02-28T16:25:48.556Z,6.93
2023-02-28T16:28:42.020Z,8.50
2023-02-28T16:31:32.662Z,7.07
2023-02-28T16:34:24.277Z,7.53
2023-02-28T16:37:17.781Z,7.97
2023-02-28T16:40:09.652Z,8.93
2023-02-28T16:43:05.461Z,8.80
2023-02-28T16:46:01.550Z,7.80
2023-02-28T16:48:53.529Z,7.43
2023-02-28T16:51:43.917Z,8.17
2023-02-28T16:54:34.003Z,8.07
2023-02-28T16:57:27.108Z,9.40
2023-02-28T17:00:20.661Z,8.27
2023-02-28T17:03:32.245Z,7.97
2023-02-28T17:06:26.267Z,7.47
2023-02-28T17:09:20.964Z,7.37
2023-02-28T17:12:13.700Z,6.70
2023-02-28T17:15:08.426Z,7.80
2023-02-28T17:18:04.714Z,8.93
2023-02-28T17:20:55.210Z,7.90
2023-02-28T17:23:45.871Z,9.13
2023-02-28T17:26:36.811Z,9.93
2023-02-28T17:29:27.978Z,11.30
2023-02-28T17:32:20.599Z,10.63
2023-02-28T17:35:14.406Z,10.83
2023-02-28T17:38:05.192Z,13.57
2023-02-28T17:40:58.720Z,13.17
2023-02-28T17:43:48.989Z,12.87
2023-02-28T17:46:41.246Z,9.53
2023-02-28T17:49:31.702Z,11.33
2023-02-28T17:52:23.893Z,9.30
2023-02-28T17:55:15.394Z,11.10
2023-02-28T17:58:06.420Z,10.40
2023-02-28T18:00:57.670Z,11.20
2023-02-28T18:03:49.862Z,11.20
2023-02-28T18:06:47.739Z,9.63
2023-02-28T18:09:40.347Z,13.13
2023-02-28T18:12:31.759Z,9.20
2023-02-28T18:15:23.804Z,10.70
2023-02-28T18:18:20.739Z,11.60
2023-02-28T18:21:13.953Z,11.00
2023-02-28T18:27:24.934Z,11.90
2023-02-28T18:30:22.787Z,11.30
2023-02-28T18:33:16.890Z,15.00
2023-02-28T18:36:08.273Z,12.37
2023-02-28T18:39:00.142Z,10.03
2023-02-28T18:41:53.533Z,13.33
2023-02-28T18:44:48.884Z,12.77
2023-02-28T18:47:40.569Z,15.10
2023-02-28T18:50:34.698Z,13.47
2023-02-28T18:53:28.404Z,10.20
2023-02-28T18:56:25.082Z,14.33
2023-02-28T18:59:18.986Z,9.80
2023-02-28T19:02:21.833Z,12.33
2023-02-28T19:05:15.179Z,11.57
2023-02-28T19:08:08.748Z,10.50
2023-02-28T19:10:59.815Z,11.63
2023-02-28T19:13:58.556Z,10.17
2023-02-28T19:16:52.656Z,9.97
2023-02-28T19:19:48.535Z,11.13
2023-02-28T19:22:39.707Z,12.83
2023-02-28T19:25:31.966Z,9.23
2023-02-28T19:28:25.213Z,9.60
2023-02-28T19:31:21.486Z,9.37
2023-02-28T19:34:18.707Z,9.17
2023-02-28T19:37:14.040Z,9.00
2023-02-28T19:40:05.394Z,7.17
2023-02-28T19:42:57.932Z,7.90
2023-02-28T19:45:52.967Z,7.03
2023-02-28T19:48:53.007Z,8.50
2023-02-28T19:51:47.027Z,9.33
2023-02-28T19:54:42.969Z,6.13
2023-02-28T19:57:38.235Z,9.43
2023-02-28T20:00:31.623Z,7.80
2023-02-28T20:03:24.556Z,9.73
2023-02-28T20:06:17.153Z,8.43
2023-02-28T20:09:15.657Z,8.33
2023-02-28T20:12:25.181Z,9.17
2023-02-28T20:15:17.982Z,9.63
2023-02-28T20:18:10.535Z,9.37
2023-02-28T20:21:01.963Z,10.17
2023-02-28T20:23:52.872Z,7.47
2023-02-28T20:26:45.495Z,5.83
2023-02-28T20:29:42.234Z,7.10
2023-02-28T20:32:34.987Z,5.77
2023-02-28T20:35:26.033Z,9.03
2023-02-28T20:38:20.729Z,7.20
2023-02-28T20:41:11.878Z,6.93
2023-02-28T20:44:05.216Z,6.77
2023-02-28T20:47:03.526Z,6.17
2023-02-28T20:49:53.649Z,6.27
2023-02-28T20:52:45.769Z,5.40
2023-02-28T20:55:37.349Z,7.10
2023-02-28T20:58:32.117Z,10.30
2023-02-28T21:01:26.634Z,8.67
2023-02-28T21:04:19.654Z,7.83
2023-02-28T21:07:11.913Z,8.23
2023-02-28T21:10:01.647Z,9.50
2023-02-28T21:12:58.528Z,8.23
2023-02-28T21:15:52.725Z,8.27
2023-02-28T21:18:45.278Z,7.97
2023-02-28T21:21:39.076Z,7.47
2023-02-28T21:24:28.553Z,6.97
2023-02-28T21:27:18.477Z,9.50
2023-02-28T21:30:10.657Z,8.73
2023-02-28T21:33:01.634Z,9.93
2023-02-28T21:35:53.362Z,8.27
2023-02-28T21:38:48.886Z,11.23
2023-02-28T21:41:40.643Z,10.13
2023-02-28T21:44:30.453Z,10.63
2023-02-28T21:47:20.627Z,13.37
2023-02-28T21:50:12.830Z,9.23
2023-02-28T21:53:03.599Z,9.83
2023-02-28T21:55:55.231Z,11.20
2023-02-28T21:58:45.543Z,10.53
2023-02-28T22:01:37.506Z,10.03
2023-02-28T22:04:28.434Z,13.47
2023-02-28T22:07:18.979Z,11.10
2023-02-28T22:10:09.211Z,12.83
2023-02-28T22:13:02.449Z,11.90
2023-02-28T22:15:52.257Z,10.40
2023-02-28T22:18:42.897Z,9.80
2023-02-28T22:21:32.887Z,10.60
2023-02-28T22:24:24.970Z,10.67
2023-02-28T22:27:14.810Z,12.40
2023-02-28T22:30:07.078Z,10.53
2023-02-28T22:32:56.889Z,12.33
2023-02-28T22:35:47.681Z,11.13
2023-02-28T22:38:37.789Z,11.37
2023-02-28T22:41:28.260Z,12.23
2023-02-28T22:44:18.466Z,9.97
2023-02-28T22:47:11.666Z,10.70
2023-02-28T22:50:01.593Z,8.63
2023-02-28T22:52:52.546Z,11.43
2023-02-28T22:55:43.296Z,11.57
2023-02-28T22:58:33.986Z,10.20
2023-02-28T23:01:28.463Z,11.97
2023-02-28T23:04:20.594Z,9.40
2023-02-28T23:07:10.533Z,10.83
2023-02-28T23:10:00.239Z,8.97
2023-02-28T23:12:52.934Z,11.30
2023-02-28T23:15:43.193Z,10.57
2023-02-28T23:18:33.163Z,11.67
2023-02-28T23:21:24.578Z,9.87
2023-02-28T23:24:17.127Z,10.80
2023-02-28T23:27:08.464Z,11.20
2023-02-28T23:29:58.463Z,9.00
2023-02-28T23:32:48.722Z,9.27
2023-02-28T23:35:39.600Z,10.57
2023-02-28T23:38:31.457Z,8.93
2023-02-28T23:41:22.886Z,9.87
2023-02-28T23:44:17.267Z,9.63
2023-02-28T23:47:10.863Z,9.07
2023-02-28T23:50:01.700Z,9.33
2023-02-28T23:52:51.424Z,9.17
2023-02-28T23:55:51.650Z,9.10
2023-02-28T23:58:44.579Z,12.27
